sensor_id;sensor_type;location;lat;lon;timestamp;pressure;altitude;pressure_sealevel;temperature;humidity
71638;BME280;59485;43.542;-5.676;2023-04-26T00:02:18;101622.78;;;16.92;100.00
71638;BME280;59485;43.542;-5.676;2023-04-26T00:04:45;101582.50;;;16.70;100.00
71638;BME280;59485;43.542;-5.676;2023-04-26T00:07:17;101628.56;;;16.97;100.00
71638;BME280;59485;43.542;-5.676;2023-04-26T00:09:42;101563.75;;;16.65;100.00
71638;BME280;59485;43.542;-5.676;2023-04-26T00:12:09;101632.38;;;17.03;100.00
71638;BME280;59485;43.542;-5.676;2023-04-26T00:14:36;101641.97;;;17.07;100.00
71638;BME280;59485;43.542;-5.676;2023-04-26T00:17:01;101621.75;;;17.00;100.00
71638;BME280;59485;43.542;-5.676;2023-04-26T00:19:28;101635.59;;;17.06;100.00
71638;BME280;59485;43.542;-5.676;2023-04-26T00:21:54;101619.59;;;17.02;100.00
71638;BME280;59485;43.542;-5.676;2023-04-26T00:24:19;101623.66;;;16.99;100.00
71638;BME280;59485;43.542;-5.676;2023-04-26T00:26:45;101625.78;;;17.04;100.00
71638;BME280;59485;43.542;-5.676;2023-04-26T00:29:10;101625.97;;;17.02;100.00
71638;BME280;59485;43.542;-5.676;2023-04-26T00:31:36;101621.09;;;16.98;100.00
71638;BME280;59485;43.542;-5.676;2023-04-26T00:34:04;101595.28;;;16.77;100.00
71638;BME280;59485;43.542;-5.676;2023-04-26T00:36:30;101625.13;;;16.95;100.00
71638;BME280;59485;43.542;-5.676;2023-04-26T00:38:56;101615.53;;;16.84;100.00
71638;BME280;59485;43.542;-5.676;2023-04-26T00:41:22;101598.06;;;16.84;100.00
71638;BME280;59485;43.542;-5.676;2023-04-26T00:43:48;101622.56;;;16.94;100.00
71638;BME280;59485;43.542;-5.676;2023-04-26T00:46:14;101609.97;;;16.84;100.00
71638;BME280;59485;43.542;-5.676;2023-04-26T00:48:39;101604.66;;;16.83;100.00
71638;BME280;59485;43.542;-5.676;2023-04-26T00:51:06;101623.00;;;16.91;100.00
71638;BME280;59485;43.542;-5.676;2023-04-26T00:53:32;101608.06;;;16.85;100.00
71638;BME280;59485;43.542;-5.676;2023-04-26T00:56:01;101610.63;;;16.86;100.00
71638;BME280;59485;43.542;-5.676;2023-04-26T00:58:28;101597.19;;;16.77;100.00
71638;BME280;59485;43.542;-5.676;2023-04-26T01:00:54;101593.94;;;16.54;100.00
71638;BME280;59485;43.542;-5.676;2023-04-26T01:03:20;101602.22;;;16.47;100.00
71638;BME280;59485;43.542;-5.676;2023-04-26T01:05:45;101600.28;;;16.41;100.00
71638;BME280;59485;43.542;-5.676;2023-04-26T01:08:11;101618.81;;;16.47;100.00
71638;BME280;59485;43.542;-5.676;2023-04-26T01:10:38;101585.78;;;16.26;100.00
71638;BME280;59485;43.542;-5.676;2023-04-26T01:13:04;101562.53;;;16.20;100.00
71638;BME280;59485;43.542;-5.676;2023-04-26T01:15:29;101589.63;;;16.38;100.00
71638;BME280;59485;43.542;-5.676;2023-04-26T01:17:57;101572.81;;;16.33;100.00
71638;BME280;59485;43.542;-5.676;2023-04-26T01:20:23;101585.19;;;16.50;100.00
71638;BME280;59485;43.542;-5.676;2023-04-26T01:22:50;101567.53;;;16.44;100.00
71638;BME280;59485;43.542;-5.676;2023-04-26T01:25:16;101576.69;;;16.58;100.00
71638;BME280;59485;43.542;-5.676;2023-04-26T01:27:42;101564.34;;;16.54;100.00
71638;BME280;59485;43.542;-5.676;2023-04-26T01:30:08;101582.50;;;16.63;100.00
71638;BME280;59485;43.542;-5.676;2023-04-26T01:32:34;101565.63;;;16.51;100.00
71638;BME280;59485;43.542;-5.676;2023-04-26T01:35:00;101578.41;;;16.59;100.00
71638;BME280;59485;43.542;-5.676;2023-04-26T01:37:25;101581.56;;;16.56;100.00
71638;BME280;59485;43.542;-5.676;2023-04-26T01:39:51;101577.34;;;16.54;100.00
71638;BME280;59485;43.542;-5.676;2023-04-26T01:42:16;101570.72;;;16.48;100.00
71638;BME280;59485;43.542;-5.676;2023-04-26T01:44:42;101552.84;;;16.44;100.00
71638;BME280;59485;43.542;-5.676;2023-04-26T01:47:08;101542.38;;;16.33;100.00
71638;BME280;59485;43.542;-5.676;2023-04-26T01:49:33;101558.13;;;16.39;100.00
71638;BME280;59485;43.542;-5.676;2023-04-26T01:52:00;101542.38;;;16.33;100.00
71638;BME280;59485;43.542;-5.676;2023-04-26T01:54:25;101547.84;;;16.20;100.00
71638;BME280;59485;43.542;-5.676;2023-04-26T01:56:51;101555.34;;;16.26;100.00
71638;BME280;59485;43.542;-5.676;2023-04-26T01:59:16;101561.72;;;16.26;100.00
71638;BME280;59485;43.542;-5.676;2023-04-26T02:01:42;101560.63;;;16.14;100.00
71638;BME280;59485;43.542;-5.676;2023-04-26T02:04:08;101550.13;;;15.96;100.00
71638;BME280;59485;43.542;-5.676;2023-04-26T02:06:36;101546.72;;;15.94;100.00
71638;BME280;59485;43.542;-5.676;2023-04-26T02:09:03;101564.63;;;16.05;100.00
71638;BME280;59485;43.542;-5.676;2023-04-26T02:11:29;101563.56;;;16.06;100.00
71638;BME280;59485;43.542;-5.676;2023-04-26T02:13:55;101570.81;;;16.07;100.00
71638;BME280;59485;43.542;-5.676;2023-04-26T02:16:20;101561.19;;;15.96;100.00
71638;BME280;59485;43.542;-5.676;2023-04-26T02:18:46;101584.84;;;16.12;100.00
71638;BME280;59485;43.542;-5.676;2023-04-26T02:21:15;101573.38;;;16.08;100.00
71638;BME280;59485;43.542;-5.676;2023-04-26T02:23:41;101556.31;;;15.98;100.00
71638;BME280;59485;43.542;-5.676;2023-04-26T02:26:07;101577.19;;;16.01;100.00
71638;BME280;59485;43.542;-5.676;2023-04-26T02:28:32;101573.50;;;15.94;100.00
71638;BME280;59485;43.542;-5.676;2023-04-26T02:30:58;101565.66;;;15.91;100.00
71638;BME280;59485;43.542;-5.676;2023-04-26T02:33:24;101548.59;;;15.81;100.00
71638;BME280;59485;43.542;-5.676;2023-04-26T02:35:49;101533.03;;;15.73;100.00
71638;BME280;59485;43.542;-5.676;2023-04-26T02:38:15;101561.16;;;15.83;100.00
71638;BME280;59485;43.542;-5.676;2023-04-26T02:40:40;101572.84;;;15.85;100.00
71638;BME280;59485;43.542;-5.676;2023-04-26T02:43:06;101549.34;;;15.68;100.00
71638;BME280;59485;43.542;-5.676;2023-04-26T02:45:31;101565.81;;;15.83;100.00
71638;BME280;59485;43.542;-5.676;2023-04-26T02:47:57;101556.00;;;15.73;100.00
71638;BME280;59485;43.542;-5.676;2023-04-26T02:50:22;101560.03;;;15.77;100.00
71638;BME280;59485;43.542;-5.676;2023-04-26T02:52:48;101556.41;;;15.70;100.00
71638;BME280;59485;43.542;-5.676;2023-04-26T02:55:14;101580.94;;;15.93;100.00
71638;BME280;59485;43.542;-5.676;2023-04-26T02:57:39;101534.00;;;15.59;100.00
71638;BME280;59485;43.542;-5.676;2023-04-26T03:00:05;101543.59;;;15.63;100.00
71638;BME280;59485;43.542;-5.676;2023-04-26T03:02:32;101550.88;;;15.77;100.00
71638;BME280;59485;43.542;-5.676;2023-04-26T03:04:57;101513.59;;;15.60;100.00
71638;BME280;59485;43.542;-5.676;2023-04-26T03:07:23;101538.78;;;15.78;100.00
71638;BME280;59485;43.542;-5.676;2023-04-26T03:09:48;101543.28;;;15.86;100.00
71638;BME280;59485;43.542;-5.676;2023-04-26T03:12:14;101555.84;;;15.95;100.00
71638;BME280;59485;43.542;-5.676;2023-04-26T03:14:39;101526.66;;;15.79;100.00
71638;BME280;59485;43.542;-5.676;2023-04-26T03:17:05;101525.41;;;15.82;100.00
71638;BME280;59485;43.542;-5.676;2023-04-26T03:19:30;101549.47;;;15.94;100.00
71638;BME280;59485;43.542;-5.676;2023-04-26T03:21:56;101538.00;;;15.91;100.00
71638;BME280;59485;43.542;-5.676;2023-04-26T03:24:21;101556.72;;;15.95;100.00
71638;BME280;59485;43.542;-5.676;2023-04-26T03:26:47;101538.41;;;15.94;100.00
71638;BME280;59485;43.542;-5.676;2023-04-26T03:29:13;101527.13;;;15.89;100.00
71638;BME280;59485;43.542;-5.676;2023-04-26T03:31:38;101540.09;;;15.89;100.00
71638;BME280;59485;43.542;-5.676;2023-04-26T03:34:04;101527.53;;;15.80;100.00
71638;BME280;59485;43.542;-5.676;2023-04-26T03:36:30;101534.75;;;15.81;100.00
71638;BME280;59485;43.542;-5.676;2023-04-26T03:38:56;101526.44;;;15.74;100.00
71638;BME280;59485;43.542;-5.676;2023-04-26T03:41:22;101531.56;;;15.84;100.00
71638;BME280;59485;43.542;-5.676;2023-04-26T03:43:48;101535.84;;;15.86;100.00
71638;BME280;59485;43.542;-5.676;2023-04-26T03:46:13;101535.63;;;15.88;100.00
71638;BME280;59485;43.542;-5.676;2023-04-26T03:48:39;101523.91;;;15.86;100.00
71638;BME280;59485;43.542;-5.676;2023-04-26T03:51:05;101520.34;;;15.92;100.00
71638;BME280;59485;43.542;-5.676;2023-04-26T03:53:31;101535.69;;;16.01;100.00
71638;BME280;59485;43.542;-5.676;2023-04-26T03:55:56;101525.25;;;16.03;100.00
71638;BME280;59485;43.542;-5.676;2023-04-26T03:58:23;101509.91;;;15.94;100.00
71638;BME280;59485;43.542;-5.676;2023-04-26T04:00:49;101503.97;;;15.97;100.00
71638;BME280;59485;43.542;-5.676;2023-04-26T04:03:14;101476.50;;;15.82;100.00
71638;BME280;59485;43.542;-5.676;2023-04-26T04:05:40;101474.13;;;15.79;100.00
71638;BME280;59485;43.542;-5.676;2023-04-26T04:08:05;101511.22;;;16.04;100.00
71638;BME280;59485;43.542;-5.676;2023-04-26T04:10:31;101503.38;;;16.01;100.00
71638;BME280;59485;43.542;-5.676;2023-04-26T04:12:57;101500.59;;;16.01;100.00
71638;BME280;59485;43.542;-5.676;2023-04-26T04:15:22;101498.25;;;15.98;100.00
71638;BME280;59485;43.542;-5.676;2023-04-26T04:17:48;101518.06;;;16.08;100.00
71638;BME280;59485;43.542;-5.676;2023-04-26T04:20:13;101513.38;;;16.09;100.00
71638;BME280;59485;43.542;-5.676;2023-04-26T04:22:39;101505.03;;;16.02;100.00
71638;BME280;59485;43.542;-5.676;2023-04-26T04:25:08;101514.63;;;16.06;100.00
71638;BME280;59485;43.542;-5.676;2023-04-26T04:27:38;101521.00;;;16.00;100.00
71638;BME280;59485;43.542;-5.676;2023-04-26T04:30:06;101512.91;;;15.99;100.00
71638;BME280;59485;43.542;-5.676;2023-04-26T04:32:33;101510.38;;;16.04;100.00
71638;BME280;59485;43.542;-5.676;2023-04-26T04:34:59;101517.19;;;16.08;100.00
71638;BME280;59485;43.542;-5.676;2023-04-26T04:37:26;101472.22;;;15.80;100.00
71638;BME280;59485;43.542;-5.676;2023-04-26T04:39:52;101507.81;;;16.02;100.00
71638;BME280;59485;43.542;-5.676;2023-04-26T04:42:18;101449.66;;;15.69;100.00
71638;BME280;59485;43.542;-5.676;2023-04-26T04:44:44;101490.56;;;15.94;100.00
71638;BME280;59485;43.542;-5.676;2023-04-26T04:47:10;101475.66;;;15.88;100.00
71638;BME280;59485;43.542;-5.676;2023-04-26T04:49:36;101497.13;;;15.93;100.00
71638;BME280;59485;43.542;-5.676;2023-04-26T04:52:02;101488.63;;;15.94;100.00
71638;BME280;59485;43.542;-5.676;2023-04-26T04:54:27;101453.28;;;15.70;100.00
71638;BME280;59485;43.542;-5.676;2023-04-26T04:56:52;101476.06;;;15.85;100.00
71638;BME280;59485;43.542;-5.676;2023-04-26T04:59:18;101474.81;;;15.88;100.00
71638;BME280;59485;43.542;-5.676;2023-04-26T05:01:44;101474.16;;;15.86;100.00
71638;BME280;59485;43.542;-5.676;2023-04-26T05:04:10;101460.13;;;15.81;100.00
71638;BME280;59485;43.542;-5.676;2023-04-26T05:06:35;101494.41;;;15.99;100.00
71638;BME280;59485;43.542;-5.676;2023-04-26T05:09:01;101494.63;;;15.98;100.00
71638;BME280;59485;43.542;-5.676;2023-04-26T05:11:26;101503.97;;;16.03;100.00
71638;BME280;59485;43.542;-5.676;2023-04-26T05:13:52;101488.22;;;15.97;100.00
71638;BME280;59485;43.542;-5.676;2023-04-26T05:16:17;101497.84;;;16.08;100.00
71638;BME280;59485;43.542;-5.676;2023-04-26T05:18:43;101476.72;;;15.94;100.00
71638;BME280;59485;43.542;-5.676;2023-04-26T05:21:08;101456.50;;;15.87;100.00
71638;BME280;59485;43.542;-5.676;2023-04-26T05:23:34;101451.63;;;15.89;100.00
71638;BME280;59485;43.542;-5.676;2023-04-26T05:26:02;101479.75;;;16.05;100.00
71638;BME280;59485;43.542;-5.676;2023-04-26T05:28:29;101496.59;;;16.17;100.00
71638;BME280;59485;43.542;-5.676;2023-04-26T05:30:54;101492.09;;;16.09;100.00
71638;BME280;59485;43.542;-5.676;2023-04-26T05:33:20;101504.03;;;16.17;100.00
71638;BME280;59485;43.542;-5.676;2023-04-26T05:35:46;101493.59;;;16.12;100.00
71638;BME280;59485;43.542;-5.676;2023-04-26T05:38:11;101480.19;;;16.16;100.00
71638;BME280;59485;43.542;-5.676;2023-04-26T05:40:37;101477.84;;;16.12;100.00
71638;BME280;59485;43.542;-5.676;2023-04-26T05:43:02;101493.41;;;16.27;100.00
71638;BME280;59485;43.542;-5.676;2023-04-26T05:45:28;101496.38;;;16.32;100.00
71638;BME280;59485;43.542;-5.676;2023-04-26T05:47:54;101472.09;;;16.21;100.00
71638;BME280;59485;43.542;-5.676;2023-04-26T05:50:20;101464.66;;;16.14;100.00
71638;BME280;59485;43.542;-5.676;2023-04-26T05:52:45;101481.50;;;16.26;100.00
71638;BME280;59485;43.542;-5.676;2023-04-26T05:55:11;101487.88;;;16.33;100.00
71638;BME280;59485;43.542;-5.676;2023-04-26T05:57:37;101495.53;;;16.38;100.00
71638;BME280;59485;43.542;-5.676;2023-04-26T06:00:03;101492.16;;;16.49;100.00
71638;BME280;59485;43.542;-5.676;2023-04-26T06:02:29;101482.56;;;16.38;100.00
71638;BME280;59485;43.542;-5.676;2023-04-26T06:04:55;101484.47;;;16.38;100.00
71638;BME280;59485;43.542;-5.676;2023-04-26T06:07:21;101493.66;;;16.51;100.00
71638;BME280;59485;43.542;-5.676;2023-04-26T06:09:46;101493.84;;;16.50;100.00
71638;BME280;59485;43.542;-5.676;2023-04-26T06:12:12;101497.06;;;16.54;100.00
71638;BME280;59485;43.542;-5.676;2023-04-26T06:14:37;101484.06;;;16.47;100.00
71638;BME280;59485;43.542;-5.676;2023-04-26T06:17:03;101478.13;;;16.44;100.00
71638;BME280;59485;43.542;-5.676;2023-04-26T06:19:28;101477.25;;;16.50;100.00
71638;BME280;59485;43.542;-5.676;2023-04-26T06:21:54;101461.91;;;16.41;100.00
71638;BME280;59485;43.542;-5.676;2023-04-26T06:24:22;101462.97;;;16.40;100.00
71638;BME280;59485;43.542;-5.676;2023-04-26T06:26:48;101485.34;;;16.58;100.00
71638;BME280;59485;43.542;-5.676;2023-04-26T06:29:14;101471.72;;;16.50;100.00
71638;BME280;59485;43.542;-5.676;2023-04-26T06:31:39;101470.00;;;16.49;100.00
71638;BME280;59485;43.542;-5.676;2023-04-26T06:34:05;101476.84;;;16.53;100.00
71638;BME280;59485;43.542;-5.676;2023-04-26T06:36:30;101485.59;;;16.63;100.00
71638;BME280;59485;43.542;-5.676;2023-04-26T06:38:57;101465.75;;;16.60;100.00
71638;BME280;59485;43.542;-5.676;2023-04-26T06:41:22;101460.44;;;16.58;100.00
71638;BME280;59485;43.542;-5.676;2023-04-26T06:43:47;101452.13;;;16.58;100.00
71638;BME280;59485;43.542;-5.676;2023-04-26T06:46:13;101459.19;;;16.67;100.00
71638;BME280;59485;43.542;-5.676;2023-04-26T06:48:39;101477.28;;;16.70;100.00
71638;BME280;59485;43.542;-5.676;2023-04-26T06:51:08;101471.13;;;16.61;100.00
71638;BME280;59485;43.542;-5.676;2023-04-26T06:53:36;101474.94;;;16.73;100.00
71638;BME280;59485;43.542;-5.676;2023-04-26T06:56:02;101481.56;;;16.72;100.00
71638;BME280;59485;43.542;-5.676;2023-04-26T06:58:28;101480.72;;;16.72;100.00
71638;BME280;59485;43.542;-5.676;2023-04-26T07:00:53;101468.75;;;16.65;100.00
71638;BME280;59485;43.542;-5.676;2023-04-26T07:03:19;101469.63;;;16.65;100.00
71638;BME280;59485;43.542;-5.676;2023-04-26T07:05:47;101474.31;;;16.71;100.00
71638;BME280;59485;43.542;-5.676;2023-04-26T07:08:13;101460.88;;;16.68;100.00
71638;BME280;59485;43.542;-5.676;2023-04-26T07:10:40;101450.88;;;16.74;100.00
71638;BME280;59485;43.542;-5.676;2023-04-26T07:13:06;101470.47;;;16.85;100.00
71638;BME280;59485;43.542;-5.676;2023-04-26T07:15:31;101476.41;;;16.96;100.00
71638;BME280;59485;43.542;-5.676;2023-04-26T07:17:57;101464.28;;;16.97;100.00
71638;BME280;59485;43.542;-5.676;2023-04-26T07:20:23;101473.19;;;17.12;100.00
71638;BME280;59485;43.542;-5.676;2023-04-26T07:22:49;101466.59;;;17.06;100.00
71638;BME280;59485;43.542;-5.676;2023-04-26T07:25:15;101459.53;;;17.10;100.00
71638;BME280;59485;43.542;-5.676;2023-04-26T07:27:41;101445.47;;;17.12;100.00
71638;BME280;59485;43.542;-5.676;2023-04-26T07:30:07;101460.16;;;17.19;100.00
71638;BME280;59485;43.542;-5.676;2023-04-26T07:32:33;101466.09;;;17.36;100.00
71638;BME280;59485;43.542;-5.676;2023-04-26T07:34:59;101471.59;;;17.49;100.00
71638;BME280;59485;43.542;-5.676;2023-04-26T07:37:25;101463.25;;;17.55;100.00
71638;BME280;59485;43.542;-5.676;2023-04-26T07:42:23;101415.97;;;17.37;100.00
71638;BME280;59485;43.542;-5.676;2023-04-26T07:47:23;101437.41;;;17.68;100.00
71638;BME280;59485;43.542;-5.676;2023-04-26T07:49:52;101465.91;;;17.88;100.00
71638;BME280;59485;43.542;-5.676;2023-04-26T07:52:18;101456.25;;;17.97;100.00
71638;BME280;59485;43.542;-5.676;2023-04-26T07:54:44;101429.59;;;17.90;100.00
71638;BME280;59485;43.542;-5.676;2023-04-26T07:57:10;101456.78;;;18.13;100.00
71638;BME280;59485;43.542;-5.676;2023-04-26T07:59:36;101458.44;;;18.20;100.00
71638;BME280;59485;43.542;-5.676;2023-04-26T08:02:01;101449.41;;;18.31;100.00
71638;BME280;59485;43.542;-5.676;2023-04-26T08:04:32;101465.09;;;18.44;100.00
71638;BME280;59485;43.542;-5.676;2023-04-26T08:06:59;101463.81;;;18.47;100.00
71638;BME280;59485;43.542;-5.676;2023-04-26T08:09:29;101442.28;;;18.42;100.00
71638;BME280;59485;43.542;-5.676;2023-04-26T08:11:55;101439.53;;;18.35;100.00
71638;BME280;59485;43.542;-5.676;2023-04-26T08:14:21;101431.84;;;18.37;100.00
71638;BME280;59485;43.542;-5.676;2023-04-26T08:16:46;101455.63;;;18.58;100.00
71638;BME280;59485;43.542;-5.676;2023-04-26T08:19:12;101440.50;;;18.48;100.00
71638;BME280;59485;43.542;-5.676;2023-04-26T08:21:37;101456.72;;;18.51;100.00
71638;BME280;59485;43.542;-5.676;2023-04-26T08:24:03;101452.25;;;18.50;100.00
71638;BME280;59485;43.542;-5.676;2023-04-26T08:26:28;101419.66;;;18.38;100.00
71638;BME280;59485;43.542;-5.676;2023-04-26T08:28:54;101450.47;;;18.55;100.00
71638;BME280;59485;43.542;-5.676;2023-04-26T08:31:21;101442.06;;;18.12;100.00
71638;BME280;59485;43.542;-5.676;2023-04-26T08:33:47;101453.22;;;18.06;100.00
71638;BME280;59485;43.542;-5.676;2023-04-26T08:39:34;101445.09;;;18.04;100.00
71638;BME280;59485;43.542;-5.676;2023-04-26T08:42:19;101464.69;;;18.16;100.00
71638;BME280;59485;43.542;-5.676;2023-04-26T08:44:48;101454.94;;;18.31;100.00
71638;BME280;59485;43.542;-5.676;2023-04-26T08:47:18;101460.84;;;18.42;100.00
71638;BME280;59485;43.542;-5.676;2023-04-26T08:49:44;101459.94;;;18.48;100.00
71638;BME280;59485;43.542;-5.676;2023-04-26T08:52:12;101447.56;;;18.50;100.00
71638;BME280;59485;43.542;-5.676;2023-04-26T08:54:40;101453.94;;;18.57;100.00
71638;BME280;59485;43.542;-5.676;2023-04-26T08:57:06;101455.56;;;18.65;100.00
71638;BME280;59485;43.542;-5.676;2023-04-26T08:59:36;101463.16;;;18.76;100.00
71638;BME280;59485;43.542;-5.676;2023-04-26T09:02:06;101464.47;;;18.73;100.00
71638;BME280;59485;43.542;-5.676;2023-04-26T09:04:31;101425.72;;;18.54;100.00
71638;BME280;59485;43.542;-5.676;2023-04-26T09:07:06;101444.38;;;18.71;100.00
71638;BME280;59485;43.542;-5.676;2023-04-26T09:09:35;101465.47;;;18.79;100.00
71638;BME280;59485;43.542;-5.676;2023-04-26T09:12:07;101464.25;;;18.75;100.00
71638;BME280;59485;43.542;-5.676;2023-04-26T09:14:33;101444.03;;;18.61;100.00
71638;BME280;59485;43.542;-5.676;2023-04-26T09:16:59;101455.56;;;18.65;100.00
71638;BME280;59485;43.542;-5.676;2023-04-26T09:19:35;101449.16;;;18.64;100.00
71638;BME280;59485;43.542;-5.676;2023-04-26T09:22:01;101464.34;;;18.62;100.00
71638;BME280;59485;43.542;-5.676;2023-04-26T09:24:27;101451.63;;;18.48;100.00
71638;BME280;59485;43.542;-5.676;2023-04-26T09:27:00;101455.19;;;18.55;100.00
71638;BME280;59485;43.542;-5.676;2023-04-26T09:29:27;101463.22;;;18.69;100.00
71638;BME280;59485;43.542;-5.676;2023-04-26T09:31:52;101438.28;;;18.63;100.00
71638;BME280;59485;43.542;-5.676;2023-04-26T09:34:18;101447.06;;;18.85;100.00
71638;BME280;59485;43.542;-5.676;2023-04-26T09:36:51;101470.94;;;19.10;100.00
71638;BME280;59485;43.542;-5.676;2023-04-26T09:41:56;101466.00;;;19.13;100.00
71638;BME280;59485;43.542;-5.676;2023-04-26T09:44:23;101470.78;;;19.05;100.00
71638;BME280;59485;43.542;-5.676;2023-04-26T09:47:05;101465.94;;;19.19;100.00
71638;BME280;59485;43.542;-5.676;2023-04-26T09:49:48;101465.22;;;19.24;100.00
71638;BME280;59485;43.542;-5.676;2023-04-26T09:52:16;101458.84;;;19.23;100.00
71638;BME280;59485;43.542;-5.676;2023-04-26T09:54:52;101466.47;;;19.28;100.00
71638;BME280;59485;43.542;-5.676;2023-04-26T09:57:20;101442.53;;;19.08;100.00
71638;BME280;59485;43.542;-5.676;2023-04-26T09:59:51;101458.00;;;19.23;100.00
71638;BME280;59485;43.542;-5.676;2023-04-26T10:02:21;101443.00;;;19.05;100.00
71638;BME280;59485;43.542;-5.676;2023-04-26T10:04:53;101465.84;;;19.07;100.00
71638;BME280;59485;43.542;-5.676;2023-04-26T10:07:20;101474.31;;;18.94;100.00
71638;BME280;59485;43.542;-5.676;2023-04-26T10:09:46;101465.50;;;18.97;100.00
71638;BME280;59485;43.542;-5.676;2023-04-26T10:12:16;101471.88;;;19.04;100.00
71638;BME280;59485;43.542;-5.676;2023-04-26T10:14:43;101479.13;;;19.05;100.00
71638;BME280;59485;43.542;-5.676;2023-04-26T10:17:09;101476.16;;;19.00;100.00
71638;BME280;59485;43.542;-5.676;2023-04-26T10:19:38;101478.81;;;18.95;100.00
71638;BME280;59485;43.542;-5.676;2023-04-26T10:22:08;101468.84;;;18.88;100.00
71638;BME280;59485;43.542;-5.676;2023-04-26T10:24:37;101486.88;;;19.22;100.00
71638;BME280;59485;43.542;-5.676;2023-04-26T10:27:03;101481.91;;;19.24;100.00
71638;BME280;59485;43.542;-5.676;2023-04-26T10:32:20;101467.13;;;19.48;100.00
71638;BME280;59485;43.542;-5.676;2023-04-26T10:35:09;101477.69;;;19.76;100.00
71638;BME280;59485;43.542;-5.676;2023-04-26T10:37:36;101472.09;;;19.94;100.00
71638;BME280;59485;43.542;-5.676;2023-04-26T10:40:23;101464.97;;;19.98;100.00
71638;BME280;59485;43.542;-5.676;2023-04-26T10:42:49;101455.44;;;20.06;100.00
71638;BME280;59485;43.542;-5.676;2023-04-26T10:45:28;101467.00;;;19.91;100.00
71638;BME280;59485;43.542;-5.676;2023-04-26T10:59:10;101477.91;;;19.38;100.00
71638;BME280;59485;43.542;-5.676;2023-04-26T11:01:37;101466.00;;;19.13;100.00
71638;BME280;59485;43.542;-5.676;2023-04-26T11:04:08;101484.13;;;19.15;100.00
71638;BME280;59485;43.542;-5.676;2023-04-26T11:06:51;101482.31;;;19.27;100.00
71638;BME280;59485;43.542;-5.676;2023-04-26T11:09:40;101462.72;;;18.97;100.00
71638;BME280;59485;43.542;-5.676;2023-04-26T11:12:13;101471.47;;;19.01;100.00
71638;BME280;59485;43.542;-5.676;2023-04-26T11:14:44;101462.72;;;18.97;100.00
71638;BME280;59485;43.542;-5.676;2023-04-26T11:17:13;101470.50;;;19.14;100.00
71638;BME280;59485;43.542;-5.676;2023-04-26T11:19:40;101484.63;;;19.30;100.00
71638;BME280;59485;43.542;-5.676;2023-04-26T11:22:07;101456.13;;;19.35;100.00
71638;BME280;59485;43.542;-5.676;2023-04-26T11:24:33;101472.50;;;19.43;100.00
71638;BME280;59485;43.542;-5.676;2023-04-26T11:27:10;101486.81;;;19.46;100.00
71638;BME280;59485;43.542;-5.676;2023-04-26T11:29:38;101473.09;;;19.08;100.00
71638;BME280;59485;43.542;-5.676;2023-04-26T11:32:04;101491.25;;;19.11;100.00
71638;BME280;59485;43.542;-5.676;2023-04-26T11:34:30;101494.81;;;19.18;100.00
71638;BME280;59485;43.542;-5.676;2023-04-26T11:36:56;101483.03;;;19.41;100.00
71638;BME280;59485;43.542;-5.676;2023-04-26T11:39:22;101466.16;;;19.36;100.00
71638;BME280;59485;43.542;-5.676;2023-04-26T11:41:48;101490.59;;;19.52;100.00
71638;BME280;59485;43.542;-5.676;2023-04-26T11:44:20;101466.34;;;19.41;100.00
71638;BME280;59485;43.542;-5.676;2023-04-26T11:46:48;101457.38;;;19.39;100.00
71638;BME280;59485;43.542;-5.676;2023-04-26T11:49:14;101482.75;;;19.67;100.00
71638;BME280;59485;43.542;-5.676;2023-04-26T11:51:40;101487.81;;;19.70;100.00
71638;BME280;59485;43.542;-5.676;2023-04-26T11:54:06;101482.53;;;19.44;100.00
71638;BME280;59485;43.542;-5.676;2023-04-26T11:56:32;101431.16;;;18.92;100.00
71638;BME280;59485;43.542;-5.676;2023-04-26T11:58:57;101459.91;;;19.04;100.00
71638;BME280;59485;43.542;-5.676;2023-04-26T12:01:25;101486.56;;;19.30;100.00
71638;BME280;59485;43.542;-5.676;2023-04-26T12:03:56;101475.22;;;19.31;100.00
71638;BME280;59485;43.542;-5.676;2023-04-26T12:06:28;101452.81;;;19.26;100.00
71638;BME280;59485;43.542;-5.676;2023-04-26T12:08:55;101436.53;;;19.66;100.00
71638;BME280;59485;43.542;-5.676;2023-04-26T12:11:21;101454.91;;;19.97;100.00
71638;BME280;59485;43.542;-5.676;2023-04-26T12:13:46;101432.25;;;19.82;100.00
71638;BME280;59485;43.542;-5.676;2023-04-26T12:16:13;101469.09;;;19.77;100.00
71638;BME280;59485;43.542;-5.676;2023-04-26T12:18:40;101475.91;;;19.45;100.00
71638;BME280;59485;43.542;-5.676;2023-04-26T12:21:06;101477.31;;;19.54;100.00
71638;BME280;59485;43.542;-5.676;2023-04-26T12:23:39;101460.22;;;19.14;100.00
71638;BME280;59485;43.542;-5.676;2023-04-26T12:26:05;101483.94;;;19.35;100.00
71638;BME280;59485;43.542;-5.676;2023-04-26T12:28:31;101457.50;;;19.44;100.00
71638;BME280;59485;43.542;-5.676;2023-04-26T12:30:57;101464.63;;;19.40;100.00
71638;BME280;59485;43.542;-5.676;2023-04-26T12:33:23;101467.97;;;19.67;100.00
71638;BME280;59485;43.542;-5.676;2023-04-26T12:35:49;101472.00;;;20.01;100.00
71638;BME280;59485;43.542;-5.676;2023-04-26T12:38:16;101461.06;;;20.17;100.00
71638;BME280;59485;43.542;-5.676;2023-04-26T12:40:42;101459.13;;;20.48;100.00
71638;BME280;59485;43.542;-5.676;2023-04-26T12:43:08;101463.00;;;20.47;100.00
71638;BME280;59485;43.542;-5.676;2023-04-26T12:45:34;101466.41;;;20.49;100.00
71638;BME280;59485;43.542;-5.676;2023-04-26T12:47:59;101475.75;;;20.66;100.00
71638;BME280;59485;43.542;-5.676;2023-04-26T12:50:25;101461.44;;;20.63;100.00
71638;BME280;59485;43.542;-5.676;2023-04-26T12:52:51;101472.22;;;20.71;100.00
71638;BME280;59485;43.542;-5.676;2023-04-26T12:55:18;101473.94;;;20.72;100.00